Main page
METAR-TAF:

METAR-TAF

Airports :

Caen – Carpiquet Airport

Caen, France

latitude: 49-11N, longitude: 000-27W, elevation: 78 m

Current weather observation

The report was made 40 minutes ago, at 21:00 UTC
Wind 4 kt from the North/Northeast, varying between North and East/Northeast
Temperature 15°C
Humidity 88%
Pressure 1021 hPa
Visibility 10 km or more
no clouds below 1500 m and no cumulonimbus

METAR: LFRK 172100Z AUTO 03004KT 360V070 CAVOK 15/13 Q1021

Time: 23:40 (21:40 UTC)

Forecast

The report was made 7 hours and 40 minutes ago, at 14:00 UTC
Forecast valid from 17 at 15 UTC to 17 at 24 UTC
Wind 3 kt from variable directions
Visibility 10 km or more
no clouds below 1500 m and no cumulonimbus
Becoming
from 17 at 16 UTC to 17 at 18 UTC
Wind 6 kt from the North/Northeast

TAF: LFRK 171400Z 1715/1724 VRB03KT CAVOK BECMG 1716/1718 02006KT

Weather observations and forecasts of more than 4000 airports (METAR and TAF reports).

The available stations are represented by yellow and red dots on the map.

Hover mouse over dot to see the name of the station.

Then click to see weather observations and forecasts.

To change the map : click on the green buttons with a black cross to zoom in, on the green button with a dash to zoom out, or on the green arrows for adjacent maps.


METAR-TAF: